createdAt,value
2017-03-14T00:00:09.707Z,0
2017-03-14T00:01:09.677Z,0
2017-03-14T00:02:09.100Z,0
2017-03-14T00:03:09.856Z,0
2017-03-14T00:04:09.639Z,0
2017-03-14T00:05:09.589Z,0
2017-03-14T00:06:09.566Z,0
2017-03-14T00:07:09.555Z,0
2017-03-14T00:08:09.724Z,0
2017-03-14T00:09:09.520Z,0
2017-03-14T00:10:09.493Z,0
2017-03-14T00:11:09.494Z,0
2017-03-14T00:12:09.450Z,0
2017-03-14T00:13:09.412Z,0
2017-03-14T00:14:09.011Z,0
2017-03-14T00:15:09.390Z,0
2017-03-14T00:16:09.352Z,0
2017-03-14T00:17:09.346Z,0
2017-03-14T00:18:09.316Z,0
2017-03-14T00:19:09.294Z,0
2017-03-14T00:20:09.251Z,0
2017-03-14T00:21:09.245Z,0
2017-03-14T00:22:09.227Z,0
2017-03-14T00:23:09.195Z,0
2017-03-14T00:24:09.175Z,0
2017-03-14T00:25:09.159Z,0
2017-03-14T00:26:09.130Z,0
2017-03-14T00:27:09.151Z,0
2017-03-14T00:28:09.090Z,0
2017-03-14T00:29:09.080Z,0
2017-03-14T00:30:08.877Z,0
2017-03-14T00:31:08.876Z,0
2017-03-14T00:32:08.594Z,0
2017-03-14T00:33:08.990Z,0
2017-03-14T00:34:08.968Z,0
2017-03-14T00:35:09.120Z,0
2017-03-14T00:36:08.891Z,0
2017-03-14T00:37:08.888Z,0
2017-03-14T00:38:08.890Z,0
2017-03-14T00:39:08.840Z,0
2017-03-14T00:40:08.437Z,0
2017-03-14T00:41:09.017Z,0
2017-03-14T00:42:08.387Z,0
2017-03-14T00:43:08.757Z,0
2017-03-14T00:44:08.723Z,0
2017-03-14T00:45:08.336Z,0
2017-03-14T00:46:08.314Z,0
2017-03-14T00:47:08.279Z,0
2017-03-14T00:48:08.254Z,0
2017-03-14T00:49:08.631Z,0
2017-03-14T00:50:08.601Z,0
2017-03-14T00:51:08.570Z,0
2017-03-14T00:52:08.554Z,0
2017-03-14T00:53:08.545Z,0
2017-03-14T00:54:08.524Z,0
2017-03-14T00:55:08.483Z,0
2017-03-14T00:56:08.476Z,0
2017-03-14T00:57:08.456Z,0
2017-03-14T00:58:08.416Z,0
2017-03-14T00:59:08.374Z,0
2017-03-14T01:00:07.990Z,0
2017-03-14T01:01:08.373Z,0
2017-03-14T01:02:07.954Z,0
2017-03-14T01:03:08.314Z,0
2017-03-14T01:04:08.283Z,0
2017-03-14T01:05:08.263Z,0
2017-03-14T01:06:08.251Z,0
2017-03-14T01:07:07.821Z,0
2017-03-14T01:08:08.201Z,0
2017-03-14T01:09:08.183Z,0
2017-03-14T01:10:07.743Z,0
2017-03-14T01:11:07.743Z,0
2017-03-14T01:12:07.340Z,0
2017-03-14T01:13:08.099Z,0
2017-03-14T01:14:07.658Z,0
2017-03-14T01:15:07.643Z,0
2017-03-14T01:16:08.027Z,0
2017-03-14T01:17:07.607Z,0
2017-03-14T01:18:07.579Z,0
2017-03-14T01:19:07.943Z,0
2017-03-14T01:20:07.587Z,0
2017-03-14T01:21:07.892Z,0
2017-03-14T01:22:07.499Z,0
2017-03-14T01:23:07.847Z,0
2017-03-14T01:24:07.807Z,0
2017-03-14T01:25:07.802Z,0
2017-03-14T01:26:07.802Z,0
2017-03-14T01:27:07.778Z,0
2017-03-14T01:28:07.372Z,0
2017-03-14T01:29:07.732Z,0
2017-03-14T01:30:07.314Z,0
2017-03-14T01:31:07.687Z,0
2017-03-14T01:32:06.882Z,0
2017-03-14T01:33:07.653Z,0
2017-03-14T01:34:07.607Z,0
2017-03-14T01:35:07.223Z,0
2017-03-14T01:36:07.170Z,0
2017-03-14T01:37:07.570Z,0
2017-03-14T01:38:07.519Z,0
2017-03-14T01:39:07.505Z,0
2017-03-14T01:40:07.491Z,0
2017-03-14T01:41:07.494Z,0
2017-03-14T01:42:07.412Z,0
2017-03-14T01:43:07.416Z,0
2017-03-14T01:44:06.993Z,0
2017-03-14T01:45:07.361Z,0
2017-03-14T01:46:07.340Z,0
2017-03-14T01:47:07.363Z,0
2017-03-14T01:48:06.915Z,0
2017-03-14T01:49:07.278Z,0
2017-03-14T01:50:07.265Z,0
2017-03-14T01:51:07.247Z,0
2017-03-14T01:52:06.829Z,0
2017-03-14T01:53:07.201Z,0
2017-03-14T01:54:07.185Z,0
2017-03-14T01:55:07.171Z,0
2017-03-14T01:56:07.128Z,0
2017-03-14T01:57:07.098Z,0
2017-03-14T01:58:07.054Z,0
2017-03-14T01:59:07.085Z,0
2017-03-14T02:00:07.043Z,0
2017-03-14T02:01:07.012Z,0
2017-03-14T02:02:06.986Z,0
2017-03-14T02:03:06.978Z,0
2017-03-14T02:04:06.945Z,0
2017-03-14T02:05:06.934Z,0
2017-03-14T02:06:06.915Z,0
2017-03-14T02:07:06.498Z,0
2017-03-14T02:08:06.864Z,0
2017-03-14T02:09:06.825Z,0
2017-03-14T02:10:06.801Z,0
2017-03-14T02:11:06.807Z,0
2017-03-14T02:12:06.781Z,0
2017-03-14T02:13:06.749Z,0
2017-03-14T02:14:06.737Z,0
2017-03-14T02:15:06.694Z,0
2017-03-14T02:16:06.701Z,0
2017-03-14T02:17:06.647Z,0
2017-03-14T02:18:06.673Z,0
2017-03-14T02:19:06.622Z,0
2017-03-14T02:20:06.588Z,0
2017-03-14T02:21:06.581Z,0
2017-03-14T02:22:06.521Z,0
2017-03-14T02:23:06.499Z,0
2017-03-14T02:24:06.515Z,0
2017-03-14T02:25:06.077Z,0
2017-03-14T02:26:06.088Z,0
2017-03-14T02:27:06.458Z,0
2017-03-14T02:28:06.421Z,0
2017-03-14T02:29:06.387Z,0
2017-03-14T02:30:06.359Z,0
2017-03-14T02:31:06.349Z,0
2017-03-14T02:32:05.931Z,0
2017-03-14T02:33:06.298Z,0
2017-03-14T02:34:05.904Z,0
2017-03-14T02:35:05.459Z,0
2017-03-14T02:36:06.249Z,0
2017-03-14T02:37:05.444Z,0
2017-03-14T02:38:06.202Z,0
2017-03-14T02:39:05.395Z,0
2017-03-14T02:40:06.143Z,0
2017-03-14T02:41:06.134Z,0
2017-03-14T02:42:05.335Z,0
2017-03-14T02:43:06.064Z,0
2017-03-14T02:44:06.054Z,0
2017-03-14T02:45:05.661Z,0
2017-03-14T02:46:06.041Z,0
2017-03-14T02:47:05.616Z,0
2017-03-14T02:48:05.938Z,0
2017-03-14T02:49:05.939Z,0
2017-03-14T02:50:05.541Z,0
2017-03-14T02:51:05.104Z,0
2017-03-14T02:52:05.101Z,0
2017-03-14T02:53:05.461Z,0
2017-03-14T02:54:05.447Z,0
2017-03-14T02:55:05.437Z,0
2017-03-14T02:56:05.782Z,0
2017-03-14T02:57:05.769Z,0
2017-03-14T02:58:05.744Z,0
2017-03-14T02:59:05.708Z,0
2017-03-14T03:00:05.303Z,0
2017-03-14T03:01:05.667Z,0
2017-03-14T03:02:05.683Z,0
2017-03-14T03:03:05.609Z,0
2017-03-14T03:04:05.592Z,0
2017-03-14T03:05:05.582Z,0
2017-03-14T03:06:05.173Z,0
2017-03-14T03:07:05.132Z,0
2017-03-14T03:08:05.506Z,0
2017-03-14T03:09:05.511Z,0
2017-03-14T03:10:05.489Z,0
2017-03-14T03:11:05.455Z,0
2017-03-14T03:12:05.453Z,0
2017-03-14T03:13:05.389Z,0
2017-03-14T03:14:05.391Z,0
2017-03-14T03:15:04.987Z,0
2017-03-14T03:16:05.327Z,0
2017-03-14T03:17:05.313Z,0
2017-03-14T03:18:05.290Z,0
2017-03-14T03:19:05.271Z,0
2017-03-14T03:20:04.852Z,0
2017-03-14T03:21:04.825Z,0
2017-03-14T03:22:04.418Z,0
2017-03-14T03:23:05.189Z,0
2017-03-14T03:24:05.159Z,0
2017-03-14T03:25:05.124Z,0
2017-03-14T03:26:05.104Z,0
2017-03-14T03:27:05.090Z,0
2017-03-14T03:28:05.060Z,0
2017-03-14T03:29:04.656Z,0
2017-03-14T03:30:05.026Z,0
2017-03-14T03:31:04.984Z,0
2017-03-14T03:32:04.949Z,0
2017-03-14T03:33:04.963Z,0
2017-03-14T03:34:04.931Z,0
2017-03-14T03:35:04.902Z,0
2017-03-14T03:36:04.885Z,0
2017-03-14T03:37:04.868Z,0
2017-03-14T03:38:04.843Z,0
2017-03-14T03:39:04.447Z,0
2017-03-14T03:40:04.420Z,0
2017-03-14T03:41:04.785Z,0
2017-03-14T03:42:04.738Z,0
2017-03-14T03:43:04.729Z,0
2017-03-14T03:44:04.698Z,0
2017-03-14T03:45:04.688Z,0
2017-03-14T03:46:04.666Z,0
2017-03-14T03:47:04.245Z,0
2017-03-14T03:48:04.237Z,0
2017-03-14T03:49:04.607Z,0
2017-03-14T03:50:04.581Z,0
2017-03-14T03:51:04.562Z,0
2017-03-14T03:52:04.525Z,0
2017-03-14T03:53:04.524Z,0
2017-03-14T03:54:04.484Z,0
2017-03-14T03:55:04.546Z,0
2017-03-14T03:56:03.282Z,0
2017-03-14T03:57:04.031Z,0
2017-03-14T03:58:04.008Z,0
2017-03-14T03:59:04.386Z,0
2017-03-14T04:00:03.971Z,0
2017-03-14T04:01:04.312Z,0
2017-03-14T04:02:04.299Z,0
2017-03-14T04:03:03.890Z,0
2017-03-14T04:04:04.258Z,0
2017-03-14T04:05:04.232Z,0
2017-03-14T04:06:04.198Z,0
2017-03-14T04:07:04.181Z,0
2017-03-14T04:08:04.177Z,0
2017-03-14T04:09:04.128Z,0
2017-03-14T04:10:04.109Z,0
2017-03-14T04:11:04.118Z,0
2017-03-14T04:12:04.086Z,0
2017-03-14T04:13:04.054Z,0
2017-03-14T04:14:04.023Z,0
2017-03-14T04:15:03.634Z,0
2017-03-14T04:16:03.979Z,0
2017-03-14T04:17:03.985Z,0
2017-03-14T04:18:03.558Z,0
2017-03-14T04:19:03.141Z,0
2017-03-14T04:20:03.138Z,0
2017-03-14T04:21:03.488Z,0
2017-03-14T04:22:03.460Z,0
2017-03-14T04:23:03.449Z,0
2017-03-14T04:24:03.838Z,0
2017-03-14T04:25:03.394Z,0
2017-03-14T04:26:03.758Z,0
2017-03-14T04:27:03.729Z,0
2017-03-14T04:28:02.941Z,0
2017-03-14T04:29:02.928Z,0
2017-03-14T04:30:03.287Z,0
2017-03-14T04:31:03.268Z,0
2017-03-14T04:32:03.238Z,0
2017-03-14T04:33:03.601Z,0
2017-03-14T04:34:03.181Z,0
2017-03-14T04:35:03.201Z,0
2017-03-14T04:36:03.546Z,0
2017-03-14T04:37:03.503Z,0
2017-03-14T04:38:03.537Z,0
2017-03-14T04:39:03.073Z,0
2017-03-14T04:40:03.466Z,0
2017-03-14T04:41:03.404Z,0
2017-03-14T04:42:03.406Z,0
2017-03-14T04:43:03.395Z,0
2017-03-14T04:44:03.382Z,0
2017-03-14T04:45:03.330Z,0
2017-03-14T04:46:03.332Z,0
2017-03-14T04:47:03.279Z,0
2017-03-14T04:48:02.873Z,0
2017-03-14T04:49:03.253Z,0
2017-03-14T04:50:03.211Z,0
2017-03-14T04:51:03.203Z,0
2017-03-14T04:52:03.189Z,0
2017-03-14T04:53:03.164Z,0
2017-03-14T04:54:02.355Z,0
2017-03-14T04:55:02.734Z,0
2017-03-14T04:56:02.694Z,0
2017-03-14T04:57:02.677Z,0
2017-03-14T04:58:02.646Z,0
2017-03-14T04:59:02.631Z,0
2017-03-14T05:00:03.001Z,0
2017-03-14T05:01:02.606Z,0
2017-03-14T05:02:02.962Z,0
2017-03-14T05:03:02.542Z,0
2017-03-14T05:04:02.909Z,0
2017-03-14T05:05:02.484Z,0
2017-03-14T05:06:02.082Z,0
2017-03-14T05:07:02.453Z,0
2017-03-14T05:08:02.815Z,0
2017-03-14T05:09:02.784Z,0
2017-03-14T05:10:02.781Z,0
2017-03-14T05:11:02.740Z,0
2017-03-14T05:12:02.318Z,0
2017-03-14T05:13:02.310Z,0
2017-03-14T05:14:02.672Z,0
2017-03-14T05:15:02.265Z,0
2017-03-14T05:16:02.621Z,0
2017-03-14T05:17:02.649Z,5
2017-03-14T05:18:02.208Z,5
2017-03-14T05:19:02.217Z,5
2017-03-14T05:20:02.142Z,5
2017-03-14T05:21:02.116Z,5
2017-03-14T05:22:02.484Z,10
2017-03-14T05:23:02.496Z,10
2017-03-14T05:24:02.073Z,10
2017-03-14T05:25:02.424Z,15
2017-03-14T05:26:02.404Z,15
2017-03-14T05:27:02.386Z,20
2017-03-14T05:28:02.364Z,20
2017-03-14T05:29:02.347Z,25
2017-03-14T05:30:02.298Z,25
2017-03-14T05:31:02.313Z,30
2017-03-14T05:32:02.266Z,30
2017-03-14T05:33:02.251Z,35
2017-03-14T05:34:02.225Z,40
2017-03-14T05:35:02.192Z,45
2017-03-14T05:36:02.188Z,45
2017-03-14T05:37:02.132Z,50
2017-03-14T05:38:01.362Z,55
2017-03-14T05:39:02.104Z,60
2017-03-14T05:40:02.102Z,65
2017-03-14T05:41:02.063Z,75
2017-03-14T05:42:02.048Z,95
2017-03-14T05:43:02.050Z,110
2017-03-14T05:44:01.997Z,125
2017-03-14T05:45:01.989Z,145
2017-03-14T05:46:01.988Z,150
2017-03-14T05:47:01.573Z,150
2017-03-14T05:48:01.941Z,165
2017-03-14T05:49:01.889Z,180
2017-03-14T05:50:01.888Z,140
2017-03-14T05:51:01.870Z,125
2017-03-14T05:52:01.816Z,160
2017-03-14T05:53:01.820Z,175
2017-03-14T05:54:01.782Z,165
2017-03-14T05:55:01.381Z,180
2017-03-14T05:56:01.786Z,180
2017-03-14T05:57:01.373Z,185
2017-03-14T05:58:01.330Z,175
2017-03-14T05:59:01.677Z,175
2017-03-14T06:00:01.643Z,180
2017-03-14T06:01:01.632Z,195
2017-03-14T06:02:01.627Z,210
2017-03-14T06:03:01.591Z,220
2017-03-14T06:04:01.576Z,230
2017-03-14T06:05:01.557Z,230
2017-03-14T06:06:01.540Z,235
2017-03-14T06:07:01.134Z,245
2017-03-14T06:08:01.474Z,235
2017-03-14T06:09:01.099Z,250
2017-03-14T06:10:01.446Z,265
2017-03-14T06:11:01.444Z,275
2017-03-14T06:12:01.399Z,305
2017-03-14T06:13:01.398Z,325
2017-03-14T06:14:01.358Z,340
2017-03-14T06:15:01.337Z,355
2017-03-14T06:16:01.356Z,365
2017-03-14T06:17:01.302Z,385
2017-03-14T06:18:01.263Z,405
2017-03-14T06:19:01.282Z,420
2017-03-14T06:20:01.240Z,440
2017-03-14T06:21:00.853Z,475
2017-03-14T06:22:00.831Z,510
2017-03-14T06:23:01.162Z,510
2017-03-14T06:24:01.173Z,505
2017-03-14T06:25:00.355Z,510
2017-03-14T06:26:01.105Z,520
2017-03-14T06:27:01.108Z,525
2017-03-14T06:28:00.676Z,515
2017-03-14T06:29:01.046Z,495
2017-03-14T06:30:01.047Z,470
2017-03-14T06:31:01.029Z,470
2017-03-14T06:32:01.000Z,445
2017-03-14T06:33:00.994Z,455
2017-03-14T06:34:00.961Z,485
2017-03-14T06:35:00.948Z,755
2017-03-14T06:36:00.904Z,865
2017-03-14T06:37:00.877Z,1050
2017-03-14T06:38:00.481Z,1040
2017-03-14T06:39:00.854Z,950
2017-03-14T06:40:00.821Z,735
2017-03-14T06:41:00.794Z,1020
2017-03-14T06:42:00.780Z,890
2017-03-14T06:43:00.770Z,1010
2017-03-14T06:44:00.740Z,1015
2017-03-14T06:45:00.347Z,870
2017-03-14T06:46:00.696Z,960
2017-03-14T06:47:00.707Z,980
2017-03-14T06:48:00.686Z,1165
2017-03-14T06:49:00.632Z,1235
2017-03-14T06:50:00.234Z,1385
2017-03-14T06:51:00.608Z,1375
2017-03-14T06:52:00.625Z,1150
2017-03-14T06:53:00.601Z,1350
2017-03-14T06:54:00.559Z,1245
2017-03-14T06:55:00.522Z,1135
2017-03-14T06:56:00.534Z,1235
2017-03-14T06:57:00.503Z,1175
2017-03-14T06:58:00.481Z,1130
2017-03-14T06:59:00.477Z,1100
2017-03-14T07:00:00.464Z,1125
2017-03-14T07:01:00.062Z,1280
2017-03-14T07:02:00.426Z,1445
2017-03-14T07:02:59.994Z,1465
2017-03-14T07:04:00.348Z,1400
2017-03-14T07:05:00.394Z,1405
2017-03-14T07:06:00.354Z,1435
2017-03-14T07:07:00.318Z,1535
2017-03-14T07:08:00.296Z,1590
2017-03-14T07:09:00.278Z,1640
2017-03-14T07:10:00.298Z,1540
2017-03-14T07:11:00.251Z,1665
2017-03-14T07:12:00.247Z,1580
2017-03-14T07:13:00.233Z,1495
2017-03-14T07:14:00.220Z,1455
2017-03-14T07:15:00.203Z,1430
2017-03-14T07:16:00.179Z,1430
2017-03-14T07:17:00.168Z,1750
2017-03-14T07:17:59.740Z,1580
2017-03-14T07:18:59.743Z,1610
2017-03-14T07:19:59.703Z,1375
2017-03-14T07:21:00.101Z,1605
2017-03-14T07:22:00.068Z,1640
2017-03-14T07:22:59.298Z,1645
2017-03-14T07:24:00.052Z,1450
2017-03-14T07:24:59.651Z,1495
2017-03-14T07:25:59.996Z,1495
2017-03-14T07:26:59.631Z,1705
2017-03-14T07:27:59.592Z,1790
2017-03-14T07:28:59.581Z,1710
2017-03-14T07:29:59.570Z,1770
2017-03-14T07:30:59.941Z,1675
2017-03-14T07:31:59.911Z,1585
2017-03-14T07:32:59.523Z,1905
2017-03-14T07:33:59.882Z,1820
2017-03-14T07:34:59.502Z,1645
2017-03-14T07:35:59.885Z,1810
2017-03-14T07:36:59.831Z,1775
2017-03-14T07:37:59.834Z,1585
2017-03-14T07:38:59.462Z,1655
2017-03-14T07:39:59.433Z,1635
2017-03-14T07:40:59.805Z,1695
2017-03-14T07:41:59.385Z,1820
2017-03-14T07:42:59.378Z,1835
2017-03-14T07:43:59.361Z,1760
2017-03-14T07:44:59.365Z,1655
2017-03-14T07:45:59.736Z,1795
2017-03-14T07:46:59.705Z,1935
2017-03-14T07:47:59.659Z,1830
2017-03-14T07:48:59.675Z,1935
2017-03-14T07:49:59.657Z,1990
2017-03-14T07:50:59.637Z,1900
2017-03-14T07:51:59.622Z,1885
2017-03-14T07:52:59.221Z,2045
2017-03-14T07:53:59.200Z,1835
2017-03-14T07:54:59.569Z,1795
2017-03-14T07:55:59.563Z,1820
2017-03-14T07:56:59.552Z,1855
2017-03-14T07:57:59.541Z,1860
2017-03-14T07:58:59.502Z,2135
2017-03-14T07:59:59.510Z,2075
2017-03-14T08:00:59.095Z,1945
2017-03-14T08:01:59.459Z,1945
2017-03-14T08:02:59.433Z,1825
2017-03-14T08:03:59.451Z,1815
2017-03-14T08:04:59.431Z,1715
2017-03-14T08:05:59.020Z,1965
2017-03-14T08:06:59.393Z,2090
2017-03-14T08:07:58.997Z,2000
2017-03-14T08:08:59.358Z,2175
2017-03-14T08:09:59.342Z,2155
2017-03-14T08:10:59.294Z,2040
2017-03-14T08:11:59.281Z,2130
2017-03-14T08:12:58.919Z,2050
2017-03-14T08:13:59.271Z,1945
2017-03-14T08:14:59.268Z,2075
2017-03-14T08:15:59.245Z,2210
2017-03-14T08:16:59.219Z,2220
2017-03-14T08:17:59.215Z,1940
2017-03-14T08:18:59.194Z,2130
2017-03-14T08:19:58.778Z,2450
2017-03-14T08:20:59.144Z,2380
2017-03-14T08:21:59.134Z,2150
2017-03-14T08:22:59.103Z,1870
2017-03-14T08:23:59.091Z,1610
2017-03-14T08:24:59.096Z,1830
2017-03-14T08:25:58.680Z,2275
2017-03-14T08:26:59.047Z,2255
2017-03-14T08:27:59.023Z,2220
2017-03-14T08:28:59.056Z,2325
2017-03-14T08:29:58.997Z,2130
2017-03-14T08:30:59.004Z,2410
2017-03-14T08:31:58.967Z,2445
2017-03-14T08:32:58.960Z,2345
2017-03-14T08:33:58.550Z,2400
2017-03-14T08:34:58.917Z,2350
2017-03-14T08:35:58.905Z,2435
2017-03-14T08:36:58.528Z,2520
2017-03-14T08:37:58.527Z,2605
2017-03-14T08:38:58.853Z,2655
2017-03-14T08:39:58.848Z,2655
2017-03-14T08:40:58.039Z,2730
2017-03-14T08:41:58.438Z,2585
2017-03-14T08:42:58.429Z,2505
2017-03-14T08:43:58.405Z,2660
2017-03-14T08:44:58.390Z,2765
2017-03-14T08:45:58.775Z,2805
2017-03-14T08:46:58.342Z,3025
2017-03-14T08:47:58.337Z,3530
2017-03-14T08:48:58.721Z,3545
2017-03-14T08:49:58.706Z,2490
2017-03-14T08:50:58.703Z,1830
2017-03-14T08:51:58.670Z,1525
2017-03-14T08:52:58.647Z,1445
2017-03-14T08:53:58.649Z,1430
2017-03-14T08:54:58.633Z,1575
2017-03-14T08:55:58.248Z,1660
2017-03-14T08:56:58.606Z,1890
2017-03-14T08:57:58.576Z,2030
2017-03-14T08:59:58.561Z,2045
2017-03-14T09:00:58.528Z,1855
2017-03-14T09:01:58.536Z,2075
2017-03-14T09:02:58.500Z,2315
2017-03-14T09:03:58.480Z,2120
2017-03-14T09:04:58.475Z,2610
2017-03-14T09:05:58.490Z,2400
2017-03-14T09:06:58.058Z,2505
2017-03-14T09:07:58.444Z,2630
2017-03-14T09:08:58.424Z,2570
2017-03-14T09:09:58.392Z,2530
2017-03-14T09:10:58.027Z,2500
2017-03-14T09:11:58.393Z,2565
2017-03-14T09:12:58.357Z,2670
2017-03-14T09:13:58.370Z,2740
2017-03-14T09:14:58.341Z,2810
2017-03-14T09:15:58.348Z,2825
2017-03-14T09:16:58.314Z,2730
2017-03-14T09:17:58.310Z,2590
2017-03-14T09:18:58.295Z,2650
2017-03-14T09:19:58.315Z,2730
2017-03-14T09:20:58.272Z,2885
2017-03-14T09:21:57.875Z,2860
2017-03-14T09:22:58.261Z,2875
2017-03-14T09:23:58.266Z,3135
2017-03-14T09:24:58.213Z,3480
2017-03-14T09:25:58.200Z,3090
2017-03-14T09:26:58.189Z,2890
2017-03-14T09:27:58.183Z,3075
2017-03-14T09:28:58.169Z,3100
2017-03-14T09:29:58.154Z,2950
2017-03-14T09:30:58.153Z,3045
2017-03-14T09:31:58.132Z,2685
2017-03-14T09:32:58.117Z,2410
2017-03-14T09:33:57.720Z,2520
2017-03-14T09:34:58.114Z,2440
2017-03-14T09:35:58.074Z,2510
2017-03-14T09:36:58.078Z,2545
2017-03-14T09:37:58.091Z,2480
2017-03-14T09:38:58.060Z,2615
2017-03-14T09:39:58.031Z,2710
2017-03-14T09:40:58.022Z,2515
2017-03-14T09:41:58.016Z,2470
2017-03-14T09:42:57.989Z,2530
2017-03-14T09:43:58.006Z,2535
2017-03-14T09:44:58.554Z,2455
2017-03-14T09:45:57.950Z,2425
2017-03-14T09:46:57.575Z,2905
2017-03-14T09:47:57.542Z,2805
2017-03-14T09:48:57.937Z,2655
2017-03-14T09:49:57.914Z,2755
2017-03-14T09:50:57.929Z,2655
2017-03-14T09:51:57.906Z,2820
2017-03-14T09:52:57.874Z,2990
2017-03-14T09:53:57.481Z,3080
2017-03-14T09:54:57.854Z,2945
2017-03-14T09:55:57.854Z,2585
2017-03-14T09:56:57.443Z,2735
2017-03-14T09:57:57.446Z,2710
2017-03-14T09:58:57.813Z,3070
2017-03-14T09:59:57.794Z,3010
2017-03-14T10:00:57.423Z,3010
2017-03-14T10:01:57.758Z,3035
2017-03-14T10:02:57.763Z,3520
2017-03-14T10:03:57.737Z,3235
2017-03-14T10:04:57.371Z,3190
2017-03-14T10:05:57.336Z,3310
2017-03-14T10:06:57.334Z,3005
2017-03-14T10:07:57.312Z,3510
2017-03-14T10:08:57.297Z,3305
2017-03-14T10:09:57.680Z,2920
2017-03-14T10:10:57.281Z,2890
2017-03-14T10:11:57.259Z,2610
2017-03-14T10:12:57.254Z,3035
2017-03-14T10:13:57.651Z,3115
2017-03-14T10:14:57.598Z,2855
2017-03-14T10:15:57.623Z,2880
2017-03-14T10:16:57.585Z,3280
2017-03-14T10:17:57.547Z,2715
2017-03-14T10:18:57.558Z,3125
2017-03-14T10:19:57.187Z,3310
2017-03-14T10:20:57.541Z,3400
2017-03-14T10:21:57.149Z,2850
2017-03-14T10:22:57.197Z,3885
2017-03-14T10:23:57.155Z,3725
2017-03-14T10:24:57.157Z,3215
2017-03-14T10:25:57.119Z,2850
2017-03-14T10:26:57.130Z,2400
2017-03-14T10:27:57.104Z,2625
2017-03-14T10:28:57.113Z,2385
2017-03-14T10:29:57.080Z,2400
2017-03-14T10:30:57.083Z,2630
2017-03-14T10:31:57.060Z,2560
2017-03-14T10:32:57.042Z,2475
2017-03-14T10:33:57.036Z,2465
2017-03-14T10:34:56.711Z,2455
2017-03-14T10:35:56.997Z,2655
2017-03-14T10:36:56.996Z,2115
2017-03-14T10:37:56.381Z,2935
2017-03-14T10:38:56.657Z,2490
2017-03-14T10:39:56.941Z,3175
2017-03-14T10:40:56.947Z,2860
2017-03-14T10:41:56.908Z,3715
2017-03-14T10:42:56.907Z,3085
2017-03-14T10:43:56.895Z,3120
2017-03-14T10:44:56.862Z,3015
2017-03-14T10:45:56.851Z,2905
2017-03-14T10:46:56.819Z,2825
2017-03-14T10:47:56.818Z,3085
2017-03-14T10:48:56.818Z,3090
2017-03-14T10:49:56.818Z,3110
2017-03-14T10:50:56.791Z,2850
2017-03-14T10:51:56.782Z,3075
2017-03-14T10:52:56.769Z,3160
2017-03-14T10:53:56.746Z,3400
2017-03-14T10:54:56.753Z,3255
2017-03-14T10:55:56.731Z,2795
2017-03-14T10:56:56.724Z,3055
2017-03-14T10:57:56.422Z,2665
2017-03-14T10:58:56.097Z,2355
2017-03-14T10:59:56.391Z,3885
2017-03-14T11:00:56.665Z,3550
2017-03-14T11:01:56.342Z,3300
2017-03-14T11:02:56.637Z,3095
2017-03-14T11:03:56.309Z,2840
2017-03-14T11:04:56.289Z,2755
2017-03-14T11:05:56.264Z,2795
2017-03-14T11:06:56.273Z,2865
2017-03-14T11:07:56.296Z,3465
2017-03-14T11:08:56.253Z,3575
2017-03-14T11:09:56.544Z,3290
2017-03-14T11:10:56.270Z,3430
2017-03-14T11:11:56.210Z,3400
2017-03-14T11:12:56.178Z,2845
2017-03-14T11:13:56.174Z,2850
2017-03-14T11:14:56.180Z,3715
2017-03-14T11:15:56.151Z,4135
2017-03-14T11:16:56.135Z,3555
2017-03-14T11:17:56.403Z,3310
2017-03-14T11:18:56.406Z,3440
2017-03-14T11:19:56.093Z,3610
2017-03-14T11:20:56.051Z,3355
2017-03-14T11:21:56.044Z,3205
2017-03-14T11:22:56.346Z,3160
2017-03-14T11:23:56.342Z,2860
2017-03-14T11:24:56.299Z,2850
2017-03-14T11:25:56.321Z,3065
2017-03-14T11:26:56.300Z,3015
2017-03-14T11:27:56.320Z,2635
2017-03-14T11:28:56.275Z,2770
2017-03-14T11:29:56.264Z,2710
2017-03-14T11:30:56.241Z,2935
2017-03-14T11:31:56.221Z,3535
2017-03-14T11:32:56.229Z,3735
2017-03-14T11:33:56.194Z,3830
2017-03-14T11:34:56.175Z,3040
2017-03-14T11:35:56.166Z,3490
2017-03-14T11:36:56.158Z,4420
2017-03-14T11:37:56.123Z,4545
2017-03-14T11:38:56.136Z,3710
2017-03-14T11:39:56.130Z,3355
2017-03-14T11:40:56.100Z,4100
2017-03-14T11:41:56.062Z,4325
2017-03-14T11:42:56.070Z,4460
2017-03-14T11:43:56.034Z,4020
2017-03-14T11:44:56.035Z,3720
2017-03-14T11:45:56.012Z,3550
2017-03-14T11:46:55.998Z,3305
2017-03-14T11:47:55.982Z,3165
2017-03-14T11:48:55.658Z,3205
2017-03-14T11:49:55.955Z,3070
2017-03-14T11:50:55.918Z,3490
2017-03-14T11:51:55.925Z,2945
2017-03-14T11:52:55.898Z,2555
2017-03-14T11:53:55.867Z,2640
2017-03-14T11:54:55.252Z,3160
2017-03-14T11:55:55.825Z,3320
2017-03-14T11:56:55.831Z,3745
2017-03-14T11:57:55.791Z,3810
2017-03-14T11:58:55.778Z,3120
2017-03-14T11:59:55.468Z,2875
2017-03-14T12:00:55.756Z,3485
2017-03-14T12:01:55.428Z,3805
2017-03-14T12:02:54.813Z,4070
2017-03-14T12:03:55.093Z,3640
2017-03-14T12:04:55.080Z,3635
2017-03-14T12:05:55.059Z,4395
2017-03-14T12:06:55.335Z,3905
2017-03-14T12:07:55.636Z,3185
2017-03-14T12:08:55.326Z,3555
2017-03-14T12:09:55.302Z,4705
2017-03-14T12:10:55.270Z,4445
2017-03-14T12:11:55.263Z,3385
2017-03-14T12:12:54.943Z,2950
2017-03-14T12:13:55.524Z,3320
2017-03-14T12:14:55.494Z,3560
2017-03-14T12:15:55.196Z,3765
2017-03-14T12:16:55.167Z,3545
2017-03-14T12:17:55.468Z,3145
2017-03-14T12:18:55.443Z,3540
2017-03-14T12:19:54.809Z,3870
2017-03-14T12:20:55.404Z,3545
2017-03-14T12:21:55.075Z,3280
2017-03-14T12:22:55.088Z,3405
2017-03-14T12:23:55.053Z,3925
2017-03-14T12:24:55.038Z,3440
2017-03-14T12:25:55.300Z,3870
2017-03-14T12:26:55.297Z,3725
2017-03-14T12:27:55.298Z,3315
2017-03-14T12:28:55.255Z,3290
2017-03-14T12:29:55.238Z,3320
2017-03-14T12:30:55.230Z,3435
2017-03-14T12:31:55.197Z,3665
2017-03-14T12:32:55.193Z,3245
2017-03-14T12:33:55.170Z,2900
2017-03-14T12:34:54.567Z,2755
2017-03-14T12:35:55.145Z,2770
2017-03-14T12:36:55.138Z,2900
2017-03-14T12:37:55.109Z,3150
2017-03-14T12:38:55.104Z,3585
2017-03-14T12:39:55.082Z,3435
2017-03-14T12:40:55.046Z,3435
2017-03-14T12:41:54.426Z,3955
2017-03-14T12:42:54.104Z,3630
2017-03-14T12:43:55.025Z,3365
2017-03-14T12:44:54.998Z,3750
2017-03-14T12:45:54.368Z,3890
2017-03-14T12:46:54.971Z,4240
2017-03-14T12:47:54.614Z,4060
2017-03-14T12:48:54.619Z,3375
2017-03-14T12:49:54.617Z,3315
2017-03-14T12:50:54.575Z,3320
2017-03-14T12:51:54.573Z,3640
2017-03-14T12:52:54.868Z,3585
2017-03-14T12:53:54.841Z,3730
2017-03-14T12:54:54.816Z,4265
2017-03-14T12:55:54.796Z,3600
2017-03-14T12:56:54.488Z,2545
2017-03-14T12:57:54.481Z,3235
2017-03-14T12:58:54.450Z,3760
2017-03-14T12:59:54.450Z,4625
2017-03-14T13:00:54.435Z,4560
2017-03-14T13:01:54.402Z,2950
2017-03-14T13:02:54.424Z,1660
2017-03-14T13:03:54.666Z,2610
2017-03-14T13:04:54.364Z,4390
2017-03-14T13:05:54.622Z,4930
2017-03-14T13:06:54.636Z,5190
2017-03-14T13:07:54.310Z,5365
2017-03-14T13:08:54.574Z,5070
2017-03-14T13:09:54.583Z,3790
2017-03-14T13:10:54.237Z,5090
2017-03-14T13:11:54.528Z,5030
2017-03-14T13:12:54.229Z,3365
2017-03-14T13:13:53.906Z,2670
2017-03-14T13:14:53.894Z,3200
2017-03-14T13:15:54.481Z,3170
2017-03-14T13:16:54.178Z,2400
2017-03-14T13:17:54.142Z,2490
2017-03-14T13:18:54.126Z,2685
2017-03-14T13:19:54.100Z,2590
2017-03-14T13:20:54.089Z,2710
2017-03-14T13:21:54.080Z,2450
2017-03-14T13:22:54.377Z,1925
2017-03-14T13:23:54.042Z,1900
2017-03-14T13:24:54.336Z,2330
2017-03-14T13:25:54.009Z,2405
2017-03-14T13:26:53.995Z,2860
2017-03-14T13:27:53.972Z,2605
2017-03-14T13:28:53.962Z,2385
2017-03-14T13:29:53.945Z,2055
2017-03-14T13:30:53.914Z,2540
2017-03-14T13:31:54.211Z,2895
2017-03-14T13:32:53.868Z,2780
2017-03-14T13:33:53.881Z,2520
2017-03-14T13:34:54.148Z,2285
2017-03-14T13:35:54.125Z,2290
2017-03-14T13:36:54.115Z,3105
2017-03-14T13:37:53.194Z,2480
2017-03-14T13:38:54.077Z,2820
2017-03-14T13:39:54.065Z,2815
2017-03-14T13:40:54.033Z,2705
2017-03-14T13:41:54.012Z,2455
2017-03-14T13:42:54.000Z,2135
2017-03-14T13:43:53.988Z,1665
2017-03-14T13:44:53.071Z,1345
2017-03-14T13:45:53.959Z,1230
2017-03-14T13:46:53.622Z,1160
2017-03-14T13:47:53.917Z,1100
2017-03-14T13:48:53.878Z,1065
2017-03-14T13:49:53.898Z,1090
2017-03-14T13:50:53.262Z,1125
2017-03-14T13:51:53.856Z,1220
2017-03-14T13:52:53.210Z,1325
2017-03-14T13:53:53.814Z,1615
2017-03-14T13:54:53.805Z,1890